Time;durP1;ratioP1;P1;durP2;ratioP2;P2;SDS_P1;SDS_P2;PMS_P1;PMS_P2;Temp;Humidity;BMP_temperature;BMP_pressure;BME280_temperature;BME280_humidity;BME280_pressure;Samples;Min_cycle;Max_cycle;Signal;HPM_P1;HPM_P2
2022/12/26 00:01:12;;;;;;;21.85;19.75;;;8.40;99.90;;;;;;4231819;28;20088;-84
2022/12/26 00:03:31;;;;;;;22.88;20.52;;;8.50;99.90;;;;;;4231195;28;20097;-85
2022/12/26 00:05:51;;;;;;;23.83;21.35;;;8.60;99.90;;;;;;4231292;28;20084;-84
2022/12/26 00:08:11;;;;;;;75.30;52.30;;;8.50;99.90;;;;;;4233065;28;20073;-84
2022/12/26 00:10:55;;;;;;;71.93;45.90;;;8.40;99.90;;;;;;4231895;28;20077;-84
2022/12/26 00:13:14;;;;;;;30.00;25.10;;;8.30;99.90;;;;;;4150046;28;20453;-84
2022/12/26 00:16:41;;;;;;;38.85;30.85;;;8.30;99.90;;;;;;4154555;28;20057;-84
2022/12/26 00:19:02;;;;;;;36.28;28.65;;;8.30;99.90;;;;;;4138329;28;20074;-84
2022/12/26 00:21:25;;;;;;;34.88;30.80;;;8.20;99.90;;;;;;4119590;28;20074;-84
2022/12/26 00:23:46;;;;;;;45.90;34.83;;;8.30;99.90;;;;;;4127082;28;20046;-85
2022/12/26 00:26:18;;;;;;;74.45;49.42;;;8.20;99.90;;;;;;4128249;28;20086;-84
2022/12/26 00:28:39;;;;;;;18.43;16.83;;;8.00;99.90;;;;;;4125451;28;20118;-84
2022/12/26 00:31:06;;;;;;;25.67;22.08;;;8.20;99.90;;;;;;4124744;28;20183;-85
2022/12/26 00:33:27;;;;;;;37.15;28.73;;;8.30;99.90;;;;;;4127102;28;20148;-84
2022/12/26 00:35:47;;;;;;;30.48;26.20;;;8.30;99.90;;;;;;4124188;28;20089;-85
2022/12/26 00:38:07;;;;;;;26.95;24.33;;;8.20;99.90;;;;;;4110441;28;20425;-84
2022/12/26 00:40:27;;;;;;;28.75;25.00;;;8.20;99.90;;;;;;4125783;28;20420;-84
2022/12/26 00:42:47;;;;;;;29.08;26.02;;;8.20;99.90;;;;;;4125262;28;20187;-84
2022/12/26 00:45:07;;;;;;;20.00;18.02;;;8.20;99.90;;;;;;4126036;28;20061;-84
2022/12/26 00:47:27;;;;;;;21.38;19.30;;;8.20;99.90;;;;;;4129561;28;20065;-84
2022/12/26 00:49:47;;;;;;;25.98;23.25;;;8.20;99.90;;;;;;4128913;28;20064;-84
2022/12/26 00:52:27;;;;;;;30.38;26.48;;;8.20;99.90;;;;;;4195433;28;20048;-84
2022/12/26 00:54:48;;;;;;;34.75;26.50;;;8.10;99.90;;;;;;4190606;28;20394;-84
2022/12/26 00:57:08;;;;;;;25.27;22.95;;;8.10;99.90;;;;;;4231914;28;20047;-84
2022/12/26 00:59:27;;;;;;;30.08;24.60;;;8.00;99.90;;;;;;4231963;28;20035;-84
2022/12/26 01:01:49;;;;;;;20.17;18.27;;;8.00;99.90;;;;;;4227516;28;20087;-84
2022/12/26 01:04:09;;;;;;;15.27;13.85;;;8.10;99.90;;;;;;4232218;28;20078;-84
2022/12/26 01:06:29;;;;;;;19.30;17.73;;;8.10;99.90;;;;;;4227326;28;20361;-84
2022/12/26 01:08:49;;;;;;;24.13;21.83;;;8.20;99.90;;;;;;4229798;28;20239;-84
2022/12/26 01:11:12;;;;;;;19.40;17.52;;;8.10;99.90;;;;;;4229677;28;20051;-84
2022/12/26 01:13:32;;;;;;;18.40;16.92;;;8.10;99.90;;;;;;4230439;28;20050;-84
2022/12/26 01:15:53;;;;;;;19.05;16.88;;;8.20;99.90;;;;;;4223653;28;20401;-84
2022/12/26 01:18:13;;;;;;;17.13;15.70;;;8.10;99.90;;;;;;4230356;28;20047;-84
2022/12/26 01:20:33;;;;;;;15.93;14.68;;;8.10;99.90;;;;;;4232665;28;20067;-84
2022/12/26 01:22:54;;;;;;;17.13;15.82;;;8.20;99.90;;;;;;4214049;28;20101;-84
2022/12/26 01:25:14;;;;;;;16.45;14.88;;;8.20;99.90;;;;;;4217135;28;20085;-84
2022/12/26 01:27:34;;;;;;;17.55;16.33;;;8.20;99.90;;;;;;4218366;28;20035;-84
2022/12/26 01:29:55;;;;;;;19.67;17.83;;;8.10;99.90;;;;;;4234903;28;20392;-84
2022/12/26 01:32:15;;;;;;;17.60;15.73;;;8.00;99.90;;;;;;4230670;28;20101;-84
2022/12/26 01:34:34;;;;;;;17.75;16.10;;;8.00;99.90;;;;;;4229072;28;20079;-84
2022/12/26 01:36:55;;;;;;;16.60;15.20;;;8.00;99.90;;;;;;4232095;28;20046;-84
2022/12/26 01:39:15;;;;;;;18.20;16.58;;;8.00;99.90;;;;;;4220583;28;20051;-84
2022/12/26 01:41:36;;;;;;;16.13;14.68;;;8.00;99.90;;;;;;4227303;28;20082;-84
2022/12/26 01:44:03;;;;;;;14.05;13.05;;;8.10;99.90;;;;;;4222765;28;20035;-84
2022/12/26 01:46:41;;;;;;;14.85;13.68;;;8.10;99.90;;;;;;4228698;28;20047;-84
2022/12/26 01:49:12;;;;;;;17.63;16.02;;;8.10;99.90;;;;;;4215948;28;20043;-84
2022/12/26 01:51:37;;;;;;;17.02;15.77;;;8.10;99.90;;;;;;4230565;28;20371;-84
2022/12/26 01:53:59;;;;;;;15.88;14.75;;;8.00;99.90;;;;;;4214162;28;20043;-84
2022/12/26 01:56:42;;;;;;;16.70;15.13;;;8.00;99.90;;;;;;4216757;28;20043;-84
2022/12/26 01:59:08;;;;;;;18.83;17.00;;;8.00;99.90;;;;;;4228203;28;20106;-84
2022/12/26 02:01:31;;;;;;;16.25;15.13;;;8.00;99.90;;;;;;4229150;28;20082;-83
2022/12/26 02:06:31;;;;;;;15.38;14.02;;;8.00;99.90;;;;;;4226710;28;20392;-83
2022/12/26 02:08:52;;;;;;;15.93;14.68;;;8.10;99.90;;;;;;4230473;28;20090;-83
2022/12/26 02:11:18;;;;;;;17.30;15.23;;;8.10;99.90;;;;;;4228155;28;20047;-83
2022/12/26 02:13:38;;;;;;;17.10;15.20;;;8.10;99.90;;;;;;4228959;28;20075;-83
2022/12/26 02:16:00;;;;;;;16.83;15.25;;;8.10;99.90;;;;;;4231287;28;20269;-83
2022/12/26 02:18:20;;;;;;;20.10;17.95;;;8.10;99.90;;;;;;4214562;28;20081;-83
2022/12/26 02:20:50;;;;;;;19.15;16.60;;;8.00;99.90;;;;;;4226817;28;20055;-83
2022/12/26 02:23:51;;;;;;;18.05;16.45;;;8.00;99.90;;;;;;4229331;28;20074;-82
2022/12/26 02:26:47;;;;;;;22.02;17.23;;;8.00;99.90;;;;;;4232224;28;20051;-83
2022/12/26 02:29:46;;;;;;;21.80;19.70;;;8.00;99.90;;;;;;4167462;28;20241;-83
2022/12/26 02:32:35;;;;;;;22.23;19.92;;;8.00;99.90;;;;;;4151328;28;20441;-83
2022/12/26 02:35:07;;;;;;;22.23;19.85;;;8.00;99.90;;;;;;4169116;28;20048;-83
2022/12/26 02:37:46;;;;;;;20.10;18.30;;;8.10;99.90;;;;;;4167613;28;20056;-83
2022/12/26 02:40:41;;;;;;;38.40;31.92;;;8.10;99.90;;;;;;4156673;28;20048;-82
2022/12/26 02:43:29;;;;;;;30.63;27.35;;;8.00;99.90;;;;;;4167856;28;20172;-82
2022/12/26 02:49:20;;;;;;;23.33;20.25;;;8.10;99.90;;;;;;4153024;28;20072;-83
2022/12/26 03:14:47;;;;;;;13.75;12.60;;;8.30;99.90;;;;;;4231697;28;20046;-83
2022/12/26 03:17:19;;;;;;;16.08;14.57;;;8.40;99.90;;;;;;4229790;28;20154;-83
2022/12/26 03:19:56;;;;;;;12.80;11.82;;;8.40;99.90;;;;;;4229367;28;20238;-83
2022/12/26 03:22:29;;;;;;;15.02;13.63;;;8.40;99.90;;;;;;4222040;28;20040;-83
2022/12/26 03:27:32;;;;;;;13.30;12.32;;;8.40;99.90;;;;;;4226144;28;20302;-83
2022/12/26 03:32:42;;;;;;;14.35;13.18;;;8.40;99.90;;;;;;4224294;28;20089;-83
2022/12/26 03:35:12;;;;;;;14.55;13.10;;;8.40;99.90;;;;;;4221177;28;20102;-82
2022/12/26 03:37:51;;;;;;;12.65;11.88;;;8.40;99.90;;;;;;4231726;28;20321;-83
2022/12/26 04:20:34;;;;;;;15.38;14.27;;;8.50;99.90;;;;;;4236855;28;20046;-83
2022/12/26 04:45:47;;;;;;;15.32;13.88;;;8.40;99.90;;;;;;4233256;28;20047;-82
2022/12/26 04:51:05;;;;;;;12.18;11.43;;;8.50;99.90;;;;;;4194326;28;20237;-83
2022/12/26 04:53:24;;;;;;;13.88;12.55;;;8.60;99.90;;;;;;4224870;28;20056;-83
2022/12/26 04:55:45;;;;;;;12.40;11.40;;;8.60;99.90;;;;;;4223425;28;20047;-82
2022/12/26 04:58:05;;;;;;;12.75;11.80;;;8.60;99.90;;;;;;4229412;28;20039;-83
2022/12/26 05:00:26;;;;;;;13.32;12.30;;;8.70;99.90;;;;;;4213230;28;20089;-83
2022/12/26 05:10:42;;;;;;;12.18;11.27;;;8.70;99.90;;;;;;4231359;28;20046;-83
2022/12/26 05:13:02;;;;;;;11.55;10.85;;;8.70;99.90;;;;;;4222684;28;20083;-83
2022/12/26 05:15:23;;;;;;;11.95;10.88;;;8.70;99.90;;;;;;4234099;28;20389;-83
2022/12/26 05:28:42;;;;;;;12.70;11.90;;;8.70;99.90;;;;;;4229871;28;20047;-83
2022/12/26 05:31:03;;;;;;;11.80;10.93;;;8.70;99.90;;;;;;4231703;28;20365;-83
2022/12/26 05:36:03;;;;;;;13.05;12.25;;;8.70;99.90;;;;;;4227058;28;20034;-82
2022/12/26 05:38:23;;;;;;;13.65;12.35;;;8.70;99.90;;;;;;4231053;28;20092;-82
2022/12/26 05:40:43;;;;;;;13.27;12.40;;;8.70;99.90;;;;;;4217265;28;20055;-82
2022/12/26 05:43:03;;;;;;;12.85;11.98;;;8.70;99.90;;;;;;4228991;28;20058;-83
2022/12/26 05:45:23;;;;;;;20.48;18.77;;;8.70;99.90;;;;;;4231645;28;20080;-83
2022/12/26 05:47:43;;;;;;;21.95;19.98;;;8.70;99.90;;;;;;4229392;28;20055;-83
2022/12/26 05:50:10;;;;;;;25.00;22.90;;;8.60;99.90;;;;;;4222710;28;20078;-83
2022/12/26 05:52:30;;;;;;;25.13;22.52;;;8.50;99.90;;;;;;4230477;28;20227;-82
2022/12/26 05:54:50;;;;;;;25.05;22.52;;;8.50;99.90;;;;;;4230276;28;20227;-83
2022/12/26 05:57:10;;;;;;;23.98;21.52;;;8.50;99.90;;;;;;4228889;28;20047;-83
2022/12/26 05:59:30;;;;;;;24.50;22.13;;;8.40;99.90;;;;;;4229357;28;20078;-83
2022/12/26 06:01:50;;;;;;;23.05;20.95;;;8.40;99.90;;;;;;4230397;28;20055;-83
2022/12/26 06:04:10;;;;;;;25.35;22.95;;;8.40;99.90;;;;;;4229751;28;20039;-83
2022/12/26 06:06:30;;;;;;;24.05;21.55;;;8.40;99.90;;;;;;4230525;28;20053;-83
2022/12/26 06:08:51;;;;;;;19.60;17.95;;;8.40;99.90;;;;;;4230560;28;20050;-83
2022/12/26 06:11:12;;;;;;;18.33;16.60;;;8.50;99.90;;;;;;4228609;28;20042;-83
2022/12/26 06:13:33;;;;;;;18.60;17.05;;;8.50;99.90;;;;;;4231121;28;20067;-83
2022/12/26 06:15:53;;;;;;;21.83;19.65;;;8.50;99.90;;;;;;4228807;28;20059;-82
2022/12/26 06:18:13;;;;;;;17.67;16.10;;;8.60;99.90;;;;;;4231063;28;20046;-82
2022/12/26 06:20:33;;;;;;;17.35;16.15;;;8.60;99.90;;;;;;4235138;28;20346;-83
2022/12/26 06:22:53;;;;;;;21.70;19.73;;;8.60;99.90;;;;;;4231545;28;20055;-83
2022/12/26 06:25:13;;;;;;;83.78;54.60;;;8.60;99.90;;;;;;4227344;28;20059;-83
2022/12/26 06:27:34;;;;;;;61.50;42.60;;;8.50;99.90;;;;;;4229047;28;20065;-83
2022/12/26 06:29:54;;;;;;;27.27;24.77;;;8.40;99.90;;;;;;4233205;28;20362;-83
2022/12/26 06:32:14;;;;;;;31.25;26.02;;;8.40;99.90;;;;;;4214838;28;20055;-83
2022/12/26 06:34:34;;;;;;;20.30;18.60;;;8.50;99.90;;;;;;4229855;28;20082;-83
2022/12/26 06:36:54;;;;;;;20.10;18.73;;;8.50;99.90;;;;;;4228795;28;20244;-82
2022/12/26 06:39:15;;;;;;;22.60;20.50;;;8.50;99.90;;;;;;4222749;28;20293;-83
2022/12/26 06:41:35;;;;;;;19.63;17.65;;;8.50;99.90;;;;;;4230078;28;20366;-83
2022/12/26 06:43:55;;;;;;;21.08;19.05;;;8.50;99.90;;;;;;4229300;28;20036;-83
2022/12/26 06:46:18;;;;;;;19.52;17.52;;;8.50;99.90;;;;;;4229907;28;20055;-83
2022/12/26 06:48:38;;;;;;;20.95;19.00;;;8.50;99.90;;;;;;4230050;28;20038;-83
2022/12/26 06:51:03;;;;;;;20.02;17.95;;;8.40;99.90;;;;;;4221967;28;20055;-83
2022/12/26 06:53:24;;;;;;;19.80;17.95;;;8.50;99.90;;;;;;4228423;28;20047;-83
2022/12/26 06:55:46;;;;;;;16.23;14.82;;;8.50;99.90;;;;;;4226532;28;20081;-83
2022/12/26 06:58:06;;;;;;;15.65;14.38;;;8.50;99.90;;;;;;4229498;28;20239;-82
2022/12/26 07:00:25;;;;;;;16.33;14.80;;;8.50;99.90;;;;;;4227899;28;20085;-83
2022/12/26 07:02:49;;;;;;;14.75;13.82;;;8.60;99.90;;;;;;4216762;28;20081;-83
2022/12/26 07:05:09;;;;;;;15.15;14.00;;;8.60;99.90;;;;;;4229769;28;20357;-83
2022/12/26 07:07:29;;;;;;;22.08;19.77;;;8.60;99.90;;;;;;4222915;28;20093;-83
2022/12/26 07:09:49;;;;;;;21.77;20.02;;;8.60;99.90;;;;;;4234518;28;20394;-83
2022/12/26 07:12:08;;;;;;;25.40;23.02;;;8.60;99.90;;;;;;4234699;28;20066;-83
2022/12/26 07:14:28;;;;;;;18.00;16.38;;;8.60;99.90;;;;;;4225923;28;20273;-83
2022/12/26 07:16:48;;;;;;;19.98;17.88;;;8.60;99.90;;;;;;4222351;28;20090;-83
2022/12/26 07:19:10;;;;;;;12.20;11.05;;;8.60;99.90;;;;;;4227476;28;20051;-83
2022/12/26 07:21:31;;;;;;;11.02;10.23;;;8.60;99.90;;;;;;4232921;28;20236;-90
2022/12/26 07:23:59;;;;;;;11.90;10.90;;;8.70;99.90;;;;;;4233610;28;20253;-90
2022/12/26 07:26:20;;;;;;;16.17;14.63;;;8.60;99.90;;;;;;4224988;28;20047;-90
2022/12/26 07:28:40;;;;;;;14.18;12.90;;;8.60;99.90;;;;;;4213701;28;20165;-90
2022/12/26 07:31:01;;;;;;;12.30;11.40;;;8.60;99.90;;;;;;4213486;28;20067;-89
2022/12/26 07:33:21;;;;;;;10.43;9.93;;;8.60;99.90;;;;;;4229808;28;20043;-90
2022/12/26 07:35:41;;;;;;;12.88;12.02;;;8.60;99.90;;;;;;4229228;28;20047;-90
2022/12/26 07:38:00;;;;;;;14.38;13.23;;;8.60;99.90;;;;;;4228858;28;20126;-90
2022/12/26 07:40:20;;;;;;;14.13;13.32;;;8.60;99.90;;;;;;4213460;28;20124;-90
2022/12/26 07:42:40;;;;;;;15.95;14.65;;;8.60;99.90;;;;;;4225229;28;20169;-90
2022/12/26 07:45:00;;;;;;;14.02;12.80;;;8.50;99.90;;;;;;4214663;28;20374;-90
2022/12/26 07:47:19;;;;;;;14.70;13.48;;;8.60;99.90;;;;;;4214879;28;20044;-89
2022/12/26 07:49:39;;;;;;;17.38;15.45;;;8.50;99.90;;;;;;4223917;28;20389;-90
2022/12/26 07:52:00;;;;;;;13.00;12.05;;;8.50;99.90;;;;;;4223541;28;20043;-90
2022/12/26 07:54:20;;;;;;;13.27;12.23;;;8.50;99.90;;;;;;4217287;28;20039;-90
2022/12/26 07:56:41;;;;;;;13.80;12.77;;;8.50;99.90;;;;;;4225644;28;20046;-90
2022/12/26 07:59:01;;;;;;;11.40;10.48;;;8.50;99.90;;;;;;4225412;28;20086;-90
2022/12/26 08:01:22;;;;;;;13.18;11.98;;;8.50;99.90;;;;;;4231298;28;20081;-90
2022/12/26 08:03:42;;;;;;;18.35;16.80;;;8.60;99.90;;;;;;4233827;28;20113;-89
2022/12/26 08:06:02;;;;;;;19.70;17.92;;;8.60;99.90;;;;;;4212801;28;20070;-90
2022/12/26 08:08:22;;;;;;;15.68;14.65;;;8.60;99.90;;;;;;4214714;28;20101;-89
2022/12/26 08:10:42;;;;;;;26.05;23.70;;;8.60;99.90;;;;;;4225603;28;20120;-90
2022/12/26 08:13:02;;;;;;;16.83;15.55;;;8.50;99.90;;;;;;4218876;28;20043;-89
2022/12/26 08:15:22;;;;;;;19.40;17.48;;;8.60;99.90;;;;;;4224475;28;20043;-89
2022/12/26 08:17:41;;;;;;;21.30;19.48;;;8.60;99.90;;;;;;4229465;28;20089;-89
2022/12/26 08:20:02;;;;;;;24.55;20.77;;;8.60;99.90;;;;;;4230142;28;20385;-89
2022/12/26 08:22:22;;;;;;;19.63;17.65;;;8.70;99.90;;;;;;4232333;28;20086;-89
2022/12/26 08:24:42;;;;;;;20.55;18.85;;;8.60;99.90;;;;;;4211569;28;20066;-90
2022/12/26 08:27:04;;;;;;;19.90;16.63;;;8.60;99.90;;;;;;4219583;28;20047;-89
2022/12/26 08:29:24;;;;;;;22.88;20.83;;;8.60;99.90;;;;;;4219054;28;20046;-89
2022/12/26 08:31:44;;;;;;;18.60;16.88;;;8.70;99.90;;;;;;4231284;28;20111;-90
2022/12/26 08:34:04;;;;;;;20.83;18.70;;;8.70;99.90;;;;;;4231396;28;20063;-89
2022/12/26 08:36:23;;;;;;;20.25;18.20;;;8.70;99.90;;;;;;4227473;28;20074;-90
2022/12/26 08:38:43;;;;;;;23.98;19.35;;;8.80;99.90;;;;;;4232092;28;20048;-90
2022/12/26 08:41:04;;;;;;;17.80;16.15;;;8.80;99.90;;;;;;4228566;28;20247;-90
2022/12/26 08:43:24;;;;;;;17.80;16.15;;;8.90;99.90;;;;;;4227110;28;20089;-90
2022/12/26 08:46:08;;;;;;;15.40;14.30;;;8.90;99.90;;;;;;4215687;28;20058;-89
2022/12/26 08:48:29;;;;;;;18.33;16.58;;;9.00;99.90;;;;;;4216573;28;20052;-90
2022/12/26 08:50:55;;;;;;;15.55;14.25;;;9.00;99.90;;;;;;4223630;28;20066;-90
2022/12/26 08:53:15;;;;;;;17.73;16.30;;;9.00;99.90;;;;;;4216382;28;20039;-89
2022/12/26 08:55:35;;;;;;;17.90;16.35;;;9.10;99.90;;;;;;4232213;28;20043;-90
2022/12/26 08:57:55;;;;;;;20.13;17.92;;;9.10;99.90;;;;;;4224122;28;20119;-90
2022/12/26 09:00:16;;;;;;;26.48;23.67;;;9.10;99.90;;;;;;4223986;28;20326;-87
2022/12/26 09:02:36;;;;;;;23.70;21.30;;;9.20;99.90;;;;;;4215464;28;20056;-87
2022/12/26 09:04:57;;;;;;;27.33;24.73;;;9.20;99.90;;;;;;4226767;28;20051;-87
2022/12/26 09:07:17;;;;;;;29.55;26.67;;;9.20;99.90;;;;;;4216840;28;20095;-86
2022/12/26 09:09:37;;;;;;;26.70;24.20;;;9.30;99.90;;;;;;4214195;28;20047;-87
2022/12/26 09:12:26;;;;;;;26.17;23.77;;;9.30;99.90;;;;;;4246368;28;20036;-86
2022/12/26 09:14:46;;;;;;;35.75;32.50;;;9.40;99.90;;;;;;4160876;28;20057;-86
2022/12/26 09:17:37;;;;;;;26.77;24.17;;;9.40;99.90;;;;;;4173731;28;20036;-86
2022/12/26 09:19:57;;;;;;;27.08;24.55;;;9.50;99.90;;;;;;4111650;28;20090;-86
2022/12/26 09:24:55;;;;;;;31.02;27.83;;;9.60;99.90;;;;;;4112559;28;20122;-87
2022/12/26 09:27:16;;;;;;;27.15;24.38;;;9.70;99.90;;;;;;4115610;28;20140;-87
2022/12/26 09:29:39;;;;;;;20.98;18.98;;;9.70;99.90;;;;;;4112485;28;20184;-87
2022/12/26 09:31:59;;;;;;;22.52;20.23;;;9.80;99.90;;;;;;4098746;28;20070;-87
2022/12/26 09:34:18;;;;;;;17.98;16.52;;;9.80;99.90;;;;;;4108474;28;20058;-86
2022/12/26 09:36:38;;;;;;;21.15;19.52;;;9.80;99.90;;;;;;4113653;28;20176;-86
2022/12/26 09:38:59;;;;;;;18.00;16.38;;;9.80;99.90;;;;;;4114996;28;20115;-87
2022/12/26 09:41:43;;;;;;;14.95;13.95;;;10.00;99.90;;;;;;4111681;28;20274;-87
2022/12/26 09:44:34;;;;;;;18.67;17.10;;;10.20;99.90;;;;;;4113647;28;20042;-87
2022/12/26 09:47:09;;;;;;;15.02;13.63;;;10.60;99.90;;;;;;4112594;28;20054;-87
2022/12/26 09:49:46;;;;;;;14.40;13.20;;;10.90;99.90;;;;;;4110788;28;20109;-87
2022/12/26 09:52:14;;;;;;;15.30;14.05;;;11.10;99.90;;;;;;4172479;28;20308;-87
2022/12/26 09:54:39;;;;;;;13.52;11.68;;;11.10;99.90;;;;;;4187755;28;20087;-87
2022/12/26 09:57:04;;;;;;;10.48;9.68;;;11.20;99.90;;;;;;4200255;28;20066;-86
2022/12/26 09:59:43;;;;;;;12.38;11.55;;;11.30;99.90;;;;;;4224101;28;20057;-87
2022/12/26 10:02:03;;;;;;;12.40;11.35;;;11.40;99.90;;;;;;4235252;28;20063;-87
2022/12/26 10:04:28;;;;;;;10.05;9.32;;;11.40;99.90;;;;;;4229879;28;20051;-87
2022/12/26 10:07:15;;;;;;;11.07;10.00;;;11.50;99.90;;;;;;4225298;28;20051;-87
2022/12/26 10:10:01;;;;;;;9.23;8.90;;;11.70;99.90;;;;;;4229389;28;20050;-87
2022/12/26 10:12:51;;;;;;;12.95;9.90;;;11.70;99.90;;;;;;4215003;28;20054;-87
2022/12/26 10:15:26;;;;;;;9.43;8.88;;;11.70;99.90;;;;;;4231528;28;20054;-87
2022/12/26 10:18:11;;;;;;;9.73;8.80;;;11.80;99.90;;;;;;4210779;28;20067;-87
2022/12/26 10:20:43;;;;;;;9.05;8.30;;;11.80;99.90;;;;;;4212622;28;20304;-87
2022/12/26 10:23:15;;;;;;;9.93;9.05;;;11.90;99.90;;;;;;4234407;28;20281;-87
2022/12/26 10:25:51;;;;;;;9.18;8.45;;;11.90;99.90;;;;;;4222507;28;20042;-87
2022/12/26 10:28:46;;;;;;;9.13;8.60;;;11.90;99.90;;;;;;4209755;28;20035;-87
2022/12/26 10:31:18;;;;;;;10.32;9.57;;;12.00;99.90;;;;;;4213121;28;20077;-87
2022/12/26 10:33:49;;;;;;;10.38;9.55;;;12.00;99.90;;;;;;4232679;28;20067;-87
2022/12/26 10:36:20;;;;;;;10.20;9.52;;;12.00;99.90;;;;;;4216203;28;20449;-87
2022/12/26 10:38:43;;;;;;;9.65;8.90;;;12.10;99.90;;;;;;4217028;28;20243;-87
2022/12/26 10:41:17;;;;;;;9.63;9.05;;;12.10;99.90;;;;;;4214321;28;20058;-87
2022/12/26 10:43:43;;;;;;;9.15;8.45;;;12.20;99.90;;;;;;4216354;28;20053;-87
2022/12/26 10:46:29;;;;;;;10.88;10.27;;;12.40;99.90;;;;;;4221810;28;20474;-87
2022/12/26 10:48:49;;;;;;;9.52;8.68;;;12.40;99.90;;;;;;4215892;28;20039;-87
2022/12/26 10:51:11;;;;;;;8.57;8.18;;;12.30;99.90;;;;;;4216471;28;20118;-87
2022/12/26 10:53:40;;;;;;;8.88;8.18;;;12.30;99.90;;;;;;4231622;28;20081;-87
2022/12/26 10:56:02;;;;;;;8.13;7.43;;;12.30;99.90;;;;;;4227269;28;20035;-87
2022/12/26 10:58:28;;;;;;;9.00;8.25;;;12.50;99.90;;;;;;4225593;28;20115;-87
2022/12/26 11:00:48;;;;;;;8.57;8.07;;;12.60;99.90;;;;;;4230327;28;20225;-82
2022/12/26 11:03:10;;;;;;;7.22;6.82;;;12.60;99.90;;;;;;4230289;28;20076;-83
2022/12/26 11:05:33;;;;;;;8.65;7.95;;;12.70;99.90;;;;;;4227322;28;20053;-83
2022/12/26 11:08:15;;;;;;;9.45;8.73;;;12.60;99.90;;;;;;4228392;28;20093;-83
2022/12/26 11:10:36;;;;;;;8.90;6.85;;;12.60;99.90;;;;;;4222850;28;20051;-83
2022/12/26 11:13:01;;;;;;;8.20;7.85;;;12.70;99.90;;;;;;4234555;28;20112;-83
2022/12/26 11:15:38;;;;;;;7.55;7.35;;;12.90;99.90;;;;;;4228260;28;20035;-83
2022/12/26 11:18:21;;;;;;;7.97;7.45;;;13.00;99.90;;;;;;4214862;28;20056;-83
2022/12/26 11:20:41;;;;;;;7.50;7.20;;;13.10;99.90;;;;;;4215972;28;20081;-83
2022/12/26 11:23:31;;;;;;;7.47;7.18;;;13.10;99.90;;;;;;4228071;28;20105;-83
2022/12/26 11:25:59;;;;;;;8.00;7.32;;;13.30;99.90;;;;;;4181067;28;20358;-83
2022/12/26 11:28:25;;;;;;;8.38;7.63;;;13.30;99.90;;;;;;4179375;28;20389;-83
2022/12/26 11:30:47;;;;;;;8.15;7.65;;;13.30;99.90;;;;;;4180725;28;20082;-83
2022/12/26 11:33:17;;;;;;;9.35;8.52;;;13.30;99.90;;;;;;4180676;28;20035;-83
2022/12/26 11:35:45;;;;;;;8.63;8.00;;;13.50;99.90;;;;;;4161854;28;20423;-83
2022/12/26 11:38:11;;;;;;;8.65;8.20;;;13.50;99.90;;;;;;4179863;28;20049;-83
2022/12/26 11:40:38;;;;;;;7.47;7.07;;;13.70;99.90;;;;;;4177597;28;20064;-82
2022/12/26 11:43:02;;;;;;;8.70;8.02;;;13.30;99.90;;;;;;4181039;28;20040;-82
2022/12/26 11:45:26;;;;;;;6.80;6.40;;;13.20;99.90;;;;;;4181812;28;20071;-82
2022/12/26 11:47:46;;;;;;;7.13;6.60;;;13.20;99.90;;;;;;4182739;28;20260;-82
2022/12/26 11:50:20;;;;;;;7.45;7.10;;;13.40;99.90;;;;;;4182509;28;20052;-82
2022/12/26 11:53:02;;;;;;;;;;;13.40;99.90;;;;;;4182507;28;20079;-83
2022/12/26 11:55:32;;;;;;;7.35;6.88;;;13.50;99.90;;;;;;4173002;28;19991;-82
2022/12/26 11:58:19;;;;;;;7.55;6.88;;;13.30;99.90;;;;;;4185674;28;20052;-82
2022/12/26 12:01:06;;;;;;;7.63;7.13;;;13.40;99.90;;;;;;4177048;28;20209;-83
2022/12/26 12:03:30;;;;;;;7.88;7.47;;;13.50;99.90;;;;;;4222946;28;20267;-82
2022/12/26 12:06:15;;;;;;;7.55;7.05;;;13.50;99.90;;;;;;4225316;28;20275;-82
2022/12/26 12:08:51;;;;;;;8.02;7.50;;;13.50;99.90;;;;;;4227476;28;20074;-82
2022/12/26 12:11:39;;;;;;;8.00;7.53;;;13.60;99.90;;;;;;4214067;28;20055;-82
2022/12/26 12:14:02;;;;;;;8.07;7.68;;;13.50;99.90;;;;;;4229795;28;20389;-82
2022/12/26 12:16:46;;;;;;;7.60;7.20;;;13.40;99.90;;;;;;4217085;28;20063;-83
2022/12/26 12:19:54;;;;;;;7.97;7.43;;;13.60;99.90;;;;;;4228335;28;20094;-82
2022/12/26 12:22:47;;;;;;;8.52;8.02;;;13.70;99.90;;;;;;4178080;28;20064;-82
2022/12/26 12:25:26;;;;;;;8.23;7.82;;;13.80;99.90;;;;;;4233344;28;20088;-82
2022/12/26 12:28:07;;;;;;;7.85;7.07;;;13.90;99.90;;;;;;4232704;28;20080;-82
2022/12/26 12:30:44;;;;;;;8.18;7.63;;;13.90;99.90;;;;;;4236047;28;20034;-82
2022/12/26 12:33:30;;;;;;;7.60;7.03;;;13.80;99.90;;;;;;4231304;28;20111;-82
2022/12/26 12:36:07;;;;;;;8.68;7.13;;;14.10;99.90;;;;;;4216149;28;20047;-82
2022/12/26 12:38:31;;;;;;;7.15;6.90;;;14.10;99.90;;;;;;4232366;28;20047;-82
2022/12/26 12:41:15;;;;;;;6.93;6.57;;;14.00;99.90;;;;;;4226973;28;20321;-82
2022/12/26 12:43:49;;;;;;;7.85;7.28;;;14.00;99.90;;;;;;4215791;28;20266;-82
2022/12/26 12:46:40;;;;;;;8.10;7.50;;;13.80;99.90;;;;;;4228759;28;20086;-83
2022/12/26 12:49:23;;;;;;;7.93;7.32;;;13.70;99.90;;;;;;4209101;28;20059;-82
2022/12/26 12:52:09;;;;;;;7.97;7.63;;;13.80;99.90;;;;;;4230342;28;20086;-82
2022/12/26 12:54:59;;;;;;;8.20;7.47;;;13.70;99.90;;;;;;4228127;28;20139;-83
2022/12/26 12:57:42;;;;;;;9.70;8.85;;;14.00;99.90;;;;;;4226350;28;20081;-82
2022/12/26 13:00:12;;;;;;;7.70;7.10;;;14.10;99.90;;;;;;4230402;28;20243;-83
2022/12/26 13:02:45;;;;;;;7.88;7.43;;;14.00;99.90;;;;;;4215398;28;20059;-83
2022/12/26 13:05:13;;;;;;;;;;;13.70;99.90;;;;;;4226961;28;20055;-83
2022/12/26 13:07:39;;;;;;;7.95;7.28;;;13.60;99.90;;;;;;4226037;28;19931;-83
2022/12/26 13:10:21;;;;;;;8.70;8.30;;;13.50;99.90;;;;;;4215896;28;20354;-83
2022/12/26 13:12:44;;;;;;;9.18;8.52;;;13.50;99.90;;;;;;4220296;28;20051;-82
2022/12/26 13:15:08;;;;;;;9.45;8.77;;;13.60;99.90;;;;;;4220980;28;20086;-83
2022/12/26 13:17:33;;;;;;;9.70;8.68;;;13.50;99.90;;;;;;4225170;28;20059;-83
2022/12/26 13:20:01;;;;;;;8.93;8.40;;;13.40;99.90;;;;;;4226477;28;20081;-83
2022/12/26 13:24:22;;;;;;;9.23;8.52;;;13.40;99.90;;;;;;4231405;28;20085;-83
2022/12/26 13:25:10;;;;;;;10.13;9.40;;;13.30;99.90;;;;;;4231420;28;20070;-83
2022/12/26 13:27:35;;;;;;;10.15;9.55;;;13.20;99.90;;;;;;4231880;28;20089;-83
2022/12/26 13:29:55;;;;;;;10.70;9.95;;;13.20;99.90;;;;;;4236144;28;20038;-82
2022/12/26 13:32:27;;;;;;;11.50;10.45;;;13.30;99.90;;;;;;4231170;28;20111;-82
2022/12/26 13:34:48;;;;;;;9.05;8.23;;;13.40;99.90;;;;;;4228728;28;20439;-83
2022/12/26 13:37:31;;;;;;;9.18;8.57;;;13.30;99.90;;;;;;4223269;28;20090;-83
2022/12/26 13:39:51;;;;;;;8.93;8.52;;;13.30;99.90;;;;;;4215578;28;20043;-83
2022/12/26 13:44:51;;;;;;;7.65;7.25;;;13.30;99.90;;;;;;4245064;28;20031;-83
2022/12/26 13:47:36;;;;;;;7.22;6.60;;;13.10;99.90;;;;;;4245641;28;20034;-83
2022/12/26 13:49:56;;;;;;;7.78;7.25;;;13.20;99.90;;;;;;4244683;28;20051;-83
2022/12/26 13:52:24;;;;;;;8.77;8.23;;;13.00;99.90;;;;;;4235360;28;20082;-82
2022/12/26 13:54:47;;;;;;;8.30;7.78;;;13.00;99.90;;;;;;4222080;28;20051;-82
2022/12/26 13:57:33;;;;;;;12.80;9.90;;;13.00;99.90;;;;;;4231741;28;20386;-83
2022/12/26 14:00:13;;;;;;;9.60;8.90;;;13.00;99.90;;;;;;4217939;28;20051;-83
2022/12/26 14:03:07;;;;;;;8.90;8.32;;;12.90;99.90;;;;;;4226048;28;20115;-82
2022/12/26 14:06:22;;;;;;;9.57;8.77;;;12.90;99.90;;;;;;4230224;28;20076;-82
2022/12/26 14:09:30;;;;;;;9.02;8.52;;;12.90;99.90;;;;;;4231853;28;20038;-83
2022/12/26 14:12:05;;;;;;;8.48;8.18;;;12.90;99.90;;;;;;4215213;28;20112;-83
2022/12/26 14:14:39;;;;;;;8.10;7.70;;;12.90;99.90;;;;;;4216897;28;20307;-83
2022/12/26 14:17:37;;;;;;;7.82;7.45;;;12.90;99.90;;;;;;4232950;28;20361;-83
2022/12/26 14:20:24;;;;;;;9.55;8.85;;;13.00;99.90;;;;;;4217280;28;20095;-83
2022/12/26 14:22:59;;;;;;;7.40;6.93;;;13.00;99.90;;;;;;4210879;28;20143;-82
2022/12/26 14:25:43;;;;;;;7.07;6.75;;;13.00;99.90;;;;;;4226304;28;20109;-83
2022/12/26 14:28:31;;;;;;;5.57;5.05;;;13.10;99.90;;;;;;4228055;28;20050;-83
2022/12/26 14:31:11;;;;;;;5.68;5.43;;;13.10;99.90;;;;;;4215874;28;20039;-83
2022/12/26 14:33:37;;;;;;;8.98;5.13;;;13.10;99.90;;;;;;4229555;28;20115;-83
2022/12/26 14:36:18;;;;;;;7.93;6.07;;;13.10;99.90;;;;;;4221223;28;20419;-83
2022/12/26 14:39:02;;;;;;;7.20;6.65;;;13.10;99.90;;;;;;4226228;28;20105;-83
2022/12/26 14:44:35;;;;;;;4.40;4.13;;;13.10;99.90;;;;;;4227998;28;20073;-83
2022/12/26 14:46:58;;;;;;;6.03;5.38;;;13.20;99.90;;;;;;4233653;28;20050;-82
2022/12/26 14:49:30;;;;;;;6.18;5.78;;;13.00;99.90;;;;;;4223334;28;20077;-83
2022/12/26 14:52:23;;;;;;;6.32;5.72;;;13.10;99.90;;;;;;4217734;28;20426;-83
2022/12/26 14:54:45;;;;;;;6.72;6.22;;;13.00;99.90;;;;;;4231316;28;20051;-83